CheckWX is a tool to help pilots better visualize weather data.  It is not intended as a substitute for an official pre-flight weather briefing.

11:10:48 UTC

LIMP TAF
Parma Airport
Parma, Italy
TAF LIMP 290540Z 2906/3006 VRB05KT 8000 SCT040

Mar-29@
06:00 UTC

Mar-29 @ 06:00 UTC

Mar-30@
06:00 UTC

Mar-30 @ 06:00 UTC

TAF LIMP 290540Z 2906/3006 VRB05KT 8000 SCT040
Wind
  • Variable at 5 KTS
Cloud Levels
  • Scattered at 4,000' AGL